createdAt,value
2019-05-20T00:00:33.219Z,9.00
2019-05-20T00:03:05.510Z,8.27
2019-05-20T00:05:37.927Z,10.17
2019-05-20T00:08:11.920Z,8.93
2019-05-20T00:10:44.604Z,10.57
2019-05-20T00:13:18.927Z,10.10
2019-05-20T00:15:51.754Z,9.43
2019-05-20T00:18:24.058Z,10.67
2019-05-20T00:20:56.364Z,10.67
2019-05-20T00:23:28.684Z,10.03
2019-05-20T00:26:02.364Z,10.90
2019-05-20T00:28:38.149Z,10.93
2019-05-20T00:31:11.326Z,10.37
2019-05-20T00:33:43.566Z,11.20
2019-05-20T00:36:15.942Z,11.33
2019-05-20T00:39:07.585Z,10.50
2019-05-20T00:41:43.605Z,10.60
2019-05-20T00:44:18.971Z,9.70
2019-05-20T00:46:51.358Z,10.10
2019-05-20T00:49:26.688Z,10.50
2019-05-20T00:52:00.068Z,10.30
2019-05-20T00:54:32.288Z,10.93
2019-05-20T00:57:04.637Z,11.47
2019-05-20T00:59:36.926Z,12.20
2019-05-20T01:02:09.280Z,12.27
2019-05-20T01:04:41.549Z,11.87
2019-05-20T01:07:14.716Z,10.70
2019-05-20T01:09:46.916Z,11.37
2019-05-20T01:12:19.274Z,11.17
2019-05-20T01:14:51.523Z,11.60
2019-05-20T01:17:23.837Z,12.00
2019-05-20T01:19:56.068Z,12.57
2019-05-20T01:22:28.427Z,11.97
2019-05-20T01:25:00.698Z,12.60
2019-05-20T01:27:33.024Z,12.33
2019-05-20T01:30:07.145Z,11.80
2019-05-20T01:32:39.556Z,13.33
2019-05-20T01:35:11.782Z,12.47
2019-05-20T01:37:44.128Z,12.67
2019-05-20T01:40:16.711Z,12.50
2019-05-20T01:42:49.602Z,12.27
2019-05-20T01:45:21.951Z,12.43
2019-05-20T01:47:54.255Z,12.10
2019-05-20T01:50:27.497Z,12.20
2019-05-20T01:52:59.790Z,12.87
2019-05-20T01:55:36.391Z,13.47
2019-05-20T01:58:14.601Z,12.20
2019-05-20T02:00:46.928Z,12.43
2019-05-20T02:03:30.942Z,12.57
2019-05-20T02:06:04.605Z,12.00
2019-05-20T02:08:38.529Z,12.03
2019-05-20T02:11:10.786Z,11.47
2019-05-20T02:13:55.273Z,12.93
2019-05-20T02:16:27.581Z,13.23
2019-05-20T02:18:59.857Z,14.33
2019-05-20T02:21:32.160Z,15.43
2019-05-20T02:24:04.500Z,16.90
2019-05-20T02:26:36.803Z,16.07
2019-05-20T02:29:09.163Z,14.73
2019-05-20T02:31:41.436Z,11.73
2019-05-20T02:34:15.337Z,13.50
2019-05-20T02:36:47.589Z,14.67
2019-05-20T02:39:19.903Z,16.07
2019-05-20T02:41:52.160Z,16.67
2019-05-20T02:44:24.529Z,15.83
2019-05-20T02:46:57.809Z,15.33
2019-05-20T02:49:30.162Z,16.47
2019-05-20T02:52:02.465Z,17.30
2019-05-20T02:54:35.594Z,19.53
2019-05-20T02:57:07.807Z,19.57
2019-05-20T02:59:40.988Z,18.40
2019-05-20T03:02:13.257Z,22.40
2019-05-20T03:04:45.644Z,21.05
2019-05-20T03:07:17.922Z,22.87
2019-05-20T03:09:50.193Z,31.43
2019-05-20T03:12:22.474Z,33.03
2019-05-20T03:14:54.819Z,35.13
2019-05-20T03:17:27.089Z,37.83
2019-05-20T03:19:59.316Z,40.40
2019-05-20T03:22:31.677Z,36.40
2019-05-20T03:25:04.786Z,39.63
2019-05-20T03:27:37.219Z,41.30
2019-05-20T03:30:10.550Z,37.38
2019-05-20T03:32:44.749Z,43.87
2019-05-20T03:35:17.048Z,49.92
2019-05-20T03:37:50.612Z,43.23
2019-05-20T03:40:23.807Z,47.60
2019-05-20T03:42:56.055Z,47.67
2019-05-20T03:45:28.318Z,49.77
2019-05-20T03:48:00.929Z,50.97
2019-05-20T03:50:34.149Z,45.83
2019-05-20T03:53:06.580Z,45.57
2019-05-20T03:55:38.881Z,43.37
2019-05-20T03:58:13.632Z,44.30
2019-05-20T04:00:47.208Z,45.83
2019-05-20T04:03:19.509Z,47.53
2019-05-20T04:05:52.612Z,45.90
2019-05-20T04:08:26.736Z,45.70
2019-05-20T04:11:00.421Z,45.60
2019-05-20T04:13:34.813Z,44.57
2019-05-20T04:16:07.386Z,47.03
2019-05-20T04:18:41.329Z,44.97
2019-05-20T04:21:13.644Z,45.43
2019-05-20T04:23:45.953Z,42.07
2019-05-20T04:26:18.315Z,46.07
2019-05-20T04:28:50.659Z,43.63
2019-05-20T04:31:23.590Z,45.53
2019-05-20T04:33:55.908Z,42.70
2019-05-20T04:36:28.291Z,40.70
2019-05-20T04:39:00.608Z,43.67
2019-05-20T04:41:35.449Z,39.10
2019-05-20T04:44:08.238Z,34.63
2019-05-20T04:46:40.538Z,38.90
2019-05-20T04:49:13.766Z,41.73
2019-05-20T04:51:47.230Z,39.77
2019-05-20T04:54:19.528Z,39.03
2019-05-20T04:56:52.640Z,37.70
2019-05-20T04:59:25.041Z,38.13
2019-05-20T05:01:57.340Z,41.47
2019-05-20T05:04:29.650Z,38.07
2019-05-20T05:07:02.761Z,37.43
2019-05-20T05:09:38.092Z,39.27
2019-05-20T05:12:10.415Z,41.53
2019-05-20T05:14:42.776Z,38.93
2019-05-20T05:17:15.155Z,35.08
2019-05-20T05:19:47.498Z,39.93
2019-05-20T05:22:20.508Z,37.83
2019-05-20T05:24:52.897Z,42.83
2019-05-20T05:27:25.279Z,42.97
2019-05-20T05:29:57.558Z,45.47
2019-05-20T05:32:36.400Z,45.23
2019-05-20T05:35:12.759Z,45.00
2019-05-20T05:37:45.551Z,46.47
2019-05-20T05:40:17.834Z,45.20
2019-05-20T05:42:51.075Z,45.73
2019-05-20T05:45:34.238Z,43.63
2019-05-20T05:48:06.512Z,41.07
2019-05-20T05:50:38.962Z,43.40
2019-05-20T05:53:12.534Z,43.60
2019-05-20T05:55:44.851Z,46.33
2019-05-20T05:58:17.179Z,49.67
2019-05-20T06:00:49.482Z,46.30
2019-05-20T06:03:22.467Z,47.80
2019-05-20T06:06:10.628Z,55.80
2019-05-20T06:08:45.687Z,52.00
2019-05-20T06:11:19.018Z,55.13
2019-05-20T06:13:52.043Z,53.53
2019-05-20T06:16:35.791Z,63.07
2019-05-20T06:19:09.423Z,62.60
2019-05-20T06:21:41.035Z,63.77
2019-05-20T06:24:13.300Z,63.53
2019-05-20T06:26:47.056Z,59.67
2019-05-20T06:29:19.335Z,66.53
2019-05-20T06:31:51.731Z,61.93
2019-05-20T06:34:24.087Z,59.53
2019-05-20T06:37:00.199Z,57.83
2019-05-20T06:39:32.757Z,52.42
2019-05-20T06:42:05.672Z,53.13
2019-05-20T06:44:51.738Z,56.27
2019-05-20T06:47:26.474Z,57.03
2019-05-20T06:49:58.727Z,59.55
2019-05-20T06:52:36.188Z,51.10
2019-05-20T06:55:10.862Z,43.77
2019-05-20T06:57:43.407Z,39.47
2019-05-20T07:00:36.484Z,44.10
2019-05-20T07:03:08.783Z,45.70
2019-05-20T07:05:41.144Z,44.53
2019-05-20T07:08:13.455Z,44.08
2019-05-20T07:10:47.139Z,44.90
2019-05-20T07:13:22.561Z,46.30
2019-05-20T07:15:56.360Z,55.30
2019-05-20T07:18:28.705Z,53.87
2019-05-20T07:21:01.664Z,51.77
2019-05-20T07:23:34.801Z,52.13
2019-05-20T07:26:07.140Z,60.50
2019-05-20T07:28:42.037Z,61.03
2019-05-20T07:31:14.904Z,61.33
2019-05-20T07:33:47.347Z,59.37
2019-05-20T07:36:21.735Z,58.40
2019-05-20T07:38:54.147Z,64.83
2019-05-20T07:41:27.409Z,60.67
2019-05-20T07:43:59.918Z,66.27
2019-05-20T07:46:33.322Z,63.60
2019-05-20T07:49:05.742Z,60.50
2019-05-20T07:51:40.816Z,57.70
2019-05-20T07:54:13.344Z,58.63
2019-05-20T07:56:46.635Z,57.30
2019-05-20T07:59:19.137Z,55.30
2019-05-20T08:01:52.820Z,48.93
2019-05-20T08:04:25.192Z,49.45
2019-05-20T08:06:57.608Z,57.30
2019-05-20T08:09:34.609Z,56.60
2019-05-20T08:12:07.879Z,55.47
2019-05-20T08:14:40.163Z,57.73
2019-05-20T08:17:13.083Z,58.00
2019-05-20T08:19:45.442Z,52.17
2019-05-20T08:22:18.444Z,48.70
2019-05-20T08:24:50.712Z,44.90
2019-05-20T08:27:23.964Z,43.10
2019-05-20T08:29:56.336Z,42.67
2019-05-20T08:32:29.597Z,42.17
2019-05-20T08:35:02.638Z,43.47
2019-05-20T08:37:45.501Z,42.30
2019-05-20T08:40:19.139Z,39.83
2019-05-20T08:42:51.542Z,40.80
2019-05-20T08:45:26.935Z,44.77
2019-05-20T08:48:01.022Z,45.93
2019-05-20T08:50:35.060Z,48.07
2019-05-20T08:53:09.091Z,55.77
2019-05-20T08:55:43.148Z,56.30
2019-05-20T08:58:15.546Z,55.03
2019-05-20T09:00:47.836Z,61.67
2019-05-20T09:03:20.827Z,59.60
2019-05-20T09:06:00.629Z,57.83
2019-05-20T09:08:33.064Z,56.20
2019-05-20T09:11:05.379Z,57.00
2019-05-20T09:13:37.810Z,58.50
2019-05-20T09:16:14.303Z,63.30
2019-05-20T09:18:46.644Z,63.97
2019-05-20T09:21:19.044Z,59.53
2019-05-20T09:23:51.415Z,60.13
2019-05-20T09:26:24.624Z,58.10
2019-05-20T09:28:57.459Z,64.17
2019-05-20T09:31:30.615Z,64.23
2019-05-20T09:34:03.658Z,60.63
2019-05-20T09:36:37.011Z,61.03
2019-05-20T09:39:09.856Z,58.53
2019-05-20T09:41:42.810Z,49.80
2019-05-20T09:44:15.208Z,42.43
2019-05-20T09:46:48.262Z,40.63
2019-05-20T09:49:24.267Z,38.40
2019-05-20T09:52:01.529Z,38.13
2019-05-20T09:54:39.705Z,35.88
2019-05-20T09:57:18.272Z,39.93
2019-05-20T09:59:58.730Z,37.07
2019-05-20T10:05:24.447Z,40.20
2019-05-20T10:08:04.563Z,38.67
2019-05-20T10:10:40.014Z,36.87
2019-05-20T10:13:16.165Z,36.70
2019-05-20T10:19:06.501Z,37.78
2019-05-20T10:21:53.335Z,35.90
2019-05-20T10:24:30.777Z,32.67
2019-05-20T10:27:22.442Z,30.67
2019-05-20T10:29:54.884Z,35.93
2019-05-20T10:32:27.757Z,41.57
2019-05-20T10:35:01.036Z,34.80
2019-05-20T10:37:33.618Z,35.03
2019-05-20T10:40:06.100Z,35.33
2019-05-20T10:42:38.418Z,34.58
2019-05-20T10:45:12.204Z,27.40
2019-05-20T10:47:44.456Z,33.47
2019-05-20T10:50:17.464Z,29.20
2019-05-20T10:52:50.311Z,31.00
2019-05-20T10:55:23.864Z,29.30
2019-05-20T10:57:57.152Z,29.50
2019-05-20T11:00:30.370Z,34.30
2019-05-20T11:03:03.238Z,37.87
2019-05-20T11:05:35.654Z,33.27
2019-05-20T11:08:08.829Z,31.53
2019-05-20T11:10:42.710Z,33.27
2019-05-20T11:13:15.571Z,31.53
2019-05-20T11:15:52.713Z,32.80
2019-05-20T11:18:27.452Z,31.80
2019-05-20T11:21:06.447Z,36.37
2019-05-20T11:23:38.712Z,38.90
2019-05-20T11:26:13.984Z,35.47
2019-05-20T11:28:47.231Z,37.77
2019-05-20T11:31:19.622Z,36.50
2019-05-20T11:33:51.992Z,36.15
2019-05-20T11:36:25.063Z,37.93
2019-05-20T11:38:59.373Z,36.60
2019-05-20T11:41:53.253Z,38.40
2019-05-20T11:44:28.657Z,42.53
2019-05-20T11:47:01.598Z,36.07
2019-05-20T11:49:35.095Z,38.93
2019-05-20T11:52:08.271Z,36.10
2019-05-20T11:54:42.333Z,36.70
2019-05-20T11:57:17.028Z,35.87
2019-05-20T11:59:49.379Z,38.80
2019-05-20T12:02:22.558Z,40.33
2019-05-20T12:04:56.398Z,38.83
2019-05-20T12:07:28.677Z,37.57
2019-05-20T12:10:02.711Z,37.97
2019-05-20T12:12:35.830Z,36.47
2019-05-20T12:15:08.697Z,37.10
2019-05-20T12:17:43.817Z,40.37
2019-05-20T12:20:18.376Z,36.70
2019-05-20T12:22:52.352Z,34.20
2019-05-20T12:25:24.698Z,35.40
2019-05-20T12:27:59.624Z,37.17
2019-05-20T12:30:34.209Z,36.97
2019-05-20T12:33:18.334Z,43.30
2019-05-20T12:35:51.821Z,40.90
2019-05-20T12:38:26.388Z,40.67
2019-05-20T12:40:58.820Z,39.27
2019-05-20T12:43:36.208Z,40.67
2019-05-20T12:46:09.272Z,38.83
2019-05-20T12:48:42.059Z,40.07
2019-05-20T12:51:14.859Z,40.87
2019-05-20T12:53:47.982Z,41.13
2019-05-20T12:56:21.616Z,41.13
2019-05-20T12:58:53.977Z,44.77
2019-05-20T13:01:26.346Z,42.97
2019-05-20T13:03:58.750Z,41.10
2019-05-20T13:06:31.121Z,42.13
2019-05-20T13:09:09.369Z,39.03
2019-05-20T13:11:42.386Z,38.07
2019-05-20T13:14:15.820Z,36.67
2019-05-20T13:16:48.676Z,33.93
2019-05-20T13:19:21.059Z,34.10
2019-05-20T13:21:53.589Z,33.83
2019-05-20T13:24:26.903Z,34.67
2019-05-20T13:27:00.709Z,39.78
2019-05-20T13:29:34.600Z,33.10
2019-05-20T13:32:06.953Z,34.13
2019-05-20T13:34:42.482Z,35.33
2019-05-20T13:37:16.511Z,32.77
2019-05-20T13:39:49.569Z,37.07
2019-05-20T13:42:22.501Z,35.90
2019-05-20T13:44:54.947Z,34.30
2019-05-20T13:47:27.313Z,33.20
2019-05-20T13:49:59.792Z,32.33
2019-05-20T13:52:32.461Z,31.12
2019-05-20T13:55:06.030Z,35.10
2019-05-20T13:57:39.585Z,34.60
2019-05-20T14:00:14.813Z,33.27
2019-05-20T14:02:47.760Z,38.33
2019-05-20T14:05:20.841Z,36.60
2019-05-20T14:08:02.602Z,36.03
2019-05-20T14:10:35.061Z,45.05
2019-05-20T14:13:08.260Z,37.87
2019-05-20T14:15:41.813Z,36.60
2019-05-20T14:18:15.864Z,38.23
2019-05-20T14:20:51.481Z,37.80
2019-05-20T14:23:24.457Z,35.13
2019-05-20T14:25:57.461Z,35.40
2019-05-20T14:28:31.712Z,35.07
2019-05-20T14:31:06.674Z,35.93
2019-05-20T14:33:39.753Z,35.87
2019-05-20T14:36:38.007Z,35.30
2019-05-20T14:39:11.606Z,36.87
2019-05-20T14:41:44.041Z,37.53
2019-05-20T14:44:18.199Z,37.53
2019-05-20T14:46:52.184Z,34.23
2019-05-20T14:49:26.819Z,39.93
2019-05-20T14:51:59.887Z,35.17
2019-05-20T14:54:32.344Z,33.05
2019-05-20T14:57:04.657Z,34.27
2019-05-20T14:59:40.205Z,37.27
2019-05-20T15:02:14.018Z,36.17
2019-05-20T15:04:48.490Z,36.70
2019-05-20T15:07:37.408Z,37.33
2019-05-20T15:10:26.209Z,34.50
2019-05-20T15:12:59.219Z,32.90
2019-05-20T15:15:35.614Z,36.80
2019-05-20T15:18:09.506Z,37.77
2019-05-20T15:20:41.969Z,34.43
2019-05-20T15:23:14.283Z,36.23
2019-05-20T15:25:48.341Z,38.47
2019-05-20T15:28:20.709Z,38.97
2019-05-20T15:30:53.721Z,34.87
2019-05-20T15:33:26.089Z,36.30
2019-05-20T15:36:01.444Z,36.03
2019-05-20T15:38:34.778Z,34.97
2019-05-20T15:41:07.179Z,35.60
2019-05-20T15:43:39.757Z,34.07
2019-05-20T15:46:15.550Z,35.77
2019-05-20T15:48:49.444Z,34.60
2019-05-20T15:51:27.631Z,37.37
2019-05-20T15:54:00.963Z,34.37
2019-05-20T15:56:37.308Z,36.03
2019-05-20T15:59:09.717Z,36.03
2019-05-20T16:01:44.091Z,35.97
2019-05-20T16:04:16.527Z,34.10
2019-05-20T16:06:48.963Z,36.00
2019-05-20T16:09:21.339Z,35.87
2019-05-20T16:11:53.819Z,34.87
2019-05-20T16:14:32.442Z,39.60
2019-05-20T16:17:05.470Z,34.73
2019-05-20T16:19:39.302Z,37.27
2019-05-20T16:22:13.231Z,38.60
2019-05-20T16:24:48.954Z,33.20
2019-05-20T16:27:23.790Z,41.83
2019-05-20T16:30:06.295Z,37.33
2019-05-20T16:32:39.868Z,34.80
2019-05-20T16:35:14.927Z,34.50
2019-05-20T16:37:48.192Z,34.58
2019-05-20T16:40:20.591Z,36.67
2019-05-20T16:42:56.082Z,33.53
2019-05-20T16:45:30.296Z,33.33
2019-05-20T16:48:04.575Z,37.90
2019-05-20T16:50:40.062Z,32.93
2019-05-20T16:53:19.856Z,32.47
2019-05-20T16:55:53.076Z,34.03
2019-05-20T16:58:26.107Z,32.07
2019-05-20T17:00:58.515Z,32.78
2019-05-20T17:03:31.732Z,32.15
2019-05-20T17:06:06.291Z,29.37
2019-05-20T17:08:38.846Z,34.07
2019-05-20T17:11:11.854Z,29.63
2019-05-20T17:13:46.300Z,30.20
2019-05-20T17:16:21.339Z,32.37
2019-05-20T17:18:54.742Z,31.42
2019-05-20T17:21:27.689Z,28.03
2019-05-20T17:24:00.811Z,30.77
2019-05-20T17:26:34.766Z,30.73
2019-05-20T17:29:11.932Z,35.22
2019-05-20T17:31:44.417Z,33.10
2019-05-20T17:34:17.482Z,30.53
2019-05-20T17:36:52.260Z,31.27
2019-05-20T17:39:25.268Z,31.53
2019-05-20T17:42:02.025Z,33.03
2019-05-20T17:44:36.002Z,31.50
2019-05-20T17:47:09.537Z,31.23
2019-05-20T17:49:42.080Z,33.50
2019-05-20T17:52:15.477Z,29.30
2019-05-20T17:54:49.835Z,30.20
2019-05-20T17:57:25.420Z,28.90
2019-05-20T17:59:58.916Z,31.27
2019-05-20T18:02:32.065Z,29.43
2019-05-20T18:05:09.541Z,27.57
2019-05-20T18:07:46.781Z,27.97
2019-05-20T18:10:24.836Z,29.87
2019-05-20T18:13:02.263Z,29.17
2019-05-20T18:15:36.409Z,26.98
2019-05-20T18:18:09.675Z,28.23
2019-05-20T18:20:42.366Z,29.37
2019-05-20T18:23:17.928Z,27.73
2019-05-20T18:25:52.456Z,29.40
2019-05-20T18:28:24.877Z,29.90
2019-05-20T18:30:58.218Z,29.87
2019-05-20T18:33:31.645Z,28.93
2019-05-20T18:36:06.899Z,32.47
2019-05-20T18:38:41.459Z,31.07
2019-05-20T18:41:15.134Z,28.10
2019-05-20T18:43:50.356Z,29.67
2019-05-20T18:46:25.308Z,26.90
2019-05-20T18:48:58.631Z,28.77
2019-05-20T18:51:32.463Z,31.10
2019-05-20T18:54:04.980Z,27.90
2019-05-20T18:56:42.088Z,31.52
2019-05-20T18:59:15.472Z,28.33
2019-05-20T19:02:03.877Z,30.67
2019-05-20T19:04:38.812Z,32.03
2019-05-20T19:07:12.010Z,30.67
2019-05-20T19:09:45.043Z,27.53
2019-05-20T19:12:17.469Z,30.13
2019-05-20T19:14:50.734Z,28.43
2019-05-20T19:17:23.513Z,28.83
2019-05-20T19:19:56.124Z,27.30
2019-05-20T19:22:28.525Z,27.13
2019-05-20T19:25:06.919Z,27.80
2019-05-20T19:27:39.928Z,28.13
2019-05-20T19:30:15.812Z,29.93
2019-05-20T19:32:49.271Z,28.70
2019-05-20T19:35:23.331Z,26.37
2019-05-20T19:38:00.229Z,28.80
2019-05-20T19:40:32.663Z,29.57
2019-05-20T19:43:05.643Z,27.90
2019-05-20T19:45:38.321Z,30.83
2019-05-20T19:48:12.480Z,27.70
2019-05-20T19:50:47.490Z,29.57
2019-05-20T19:53:21.285Z,29.93
2019-05-20T19:55:55.802Z,29.60
2019-05-20T19:58:29.574Z,30.53
2019-05-20T20:01:03.392Z,31.43
2019-05-20T20:03:39.684Z,28.20
2019-05-20T20:06:13.133Z,30.63
2019-05-20T20:08:46.063Z,32.73
2019-05-20T20:11:19.918Z,30.97
2019-05-20T20:13:52.682Z,29.65
2019-05-20T20:16:29.010Z,34.73
2019-05-20T20:19:07.322Z,32.87
2019-05-20T20:21:43.496Z,30.17
2019-05-20T20:24:18.100Z,34.42
2019-05-20T20:26:51.460Z,33.40
2019-05-20T20:29:25.261Z,29.73
2019-05-20T20:32:00.026Z,31.67
2019-05-20T20:34:33.029Z,29.73
2019-05-20T20:37:06.938Z,32.07
2019-05-20T20:39:40.595Z,33.00
2019-05-20T20:42:15.954Z,33.90
2019-05-20T20:44:49.762Z,31.17
2019-05-20T20:47:23.116Z,31.40
2019-05-20T20:50:03.350Z,35.50
2019-05-20T20:52:39.759Z,37.80
2019-05-20T20:55:13.849Z,33.10
2019-05-20T20:57:49.533Z,32.97
2019-05-20T21:01:04.454Z,33.83
2019-05-20T21:03:37.269Z,35.37
2019-05-20T21:06:16.986Z,35.53
2019-05-20T21:08:56.745Z,38.07
2019-05-20T21:11:36.159Z,40.30
2019-05-20T21:14:10.023Z,35.80
2019-05-20T21:16:44.340Z,36.77
2019-05-20T21:19:16.793Z,42.17
2019-05-20T21:21:49.219Z,39.70
2019-05-20T21:24:21.608Z,39.22
2019-05-20T21:26:54.613Z,35.97
2019-05-20T21:29:27.085Z,39.30
2019-05-20T21:32:01.539Z,39.77
2019-05-20T21:34:35.253Z,48.43
2019-05-20T21:37:10.999Z,42.67
2019-05-20T21:39:45.632Z,43.10
2019-05-20T21:42:21.465Z,45.77
2019-05-20T21:44:54.427Z,43.87
2019-05-20T21:47:26.755Z,42.23
2019-05-20T21:50:02.022Z,42.23
2019-05-20T21:52:35.823Z,44.03
2019-05-20T21:55:13.022Z,43.77
2019-05-20T21:57:46.905Z,41.30
2019-05-20T22:00:34.132Z,42.87
2019-05-20T22:03:07.291Z,46.93
2019-05-20T22:05:40.318Z,45.80
2019-05-20T22:08:12.592Z,49.73
2019-05-20T22:10:50.754Z,46.73
2019-05-20T22:13:23.805Z,51.87
2019-05-20T22:15:56.134Z,49.33
2019-05-20T22:18:28.539Z,45.30
2019-05-20T22:21:01.000Z,44.30
2019-05-20T22:23:44.893Z,41.30
2019-05-20T22:26:17.176Z,35.97
2019-05-20T22:28:50.529Z,34.03
2019-05-20T22:31:24.429Z,30.63
2019-05-20T22:33:56.746Z,33.23
2019-05-20T22:36:29.044Z,33.00
2019-05-20T22:39:02.658Z,31.70
2019-05-20T22:41:35.061Z,30.27
2019-05-20T22:44:07.437Z,27.67
2019-05-20T22:46:39.843Z,30.17
2019-05-20T22:49:12.166Z,28.30
2019-05-20T22:51:44.540Z,28.03
2019-05-20T22:54:16.971Z,27.47
2019-05-20T22:56:50.858Z,26.00
2019-05-20T22:59:23.147Z,26.67
2019-05-20T23:01:56.294Z,26.03
2019-05-20T23:04:30.741Z,26.17
2019-05-20T23:07:05.939Z,26.60
2019-05-20T23:09:38.350Z,30.70
2019-05-20T23:12:12.108Z,26.83
2019-05-20T23:14:44.480Z,24.17
2019-05-20T23:17:17.041Z,24.87
2019-05-20T23:19:50.307Z,26.07
2019-05-20T23:22:22.666Z,27.33
2019-05-20T23:24:54.958Z,27.90
2019-05-20T23:27:27.245Z,25.27
2019-05-20T23:30:04.897Z,24.50
2019-05-20T23:32:38.503Z,26.67
2019-05-20T23:35:10.805Z,27.87
2019-05-20T23:37:43.126Z,26.40
2019-05-20T23:40:15.476Z,31.20
2019-05-20T23:42:48.908Z,30.63
2019-05-20T23:45:21.819Z,32.90
2019-05-20T23:47:55.886Z,32.60
2019-05-20T23:50:28.198Z,30.60
2019-05-20T23:53:02.042Z,34.50
2019-05-20T23:55:34.374Z,41.47
2019-05-20T23:58:06.684Z,40.97
